Brashear, Texas
Current Conditions -  °F | °C
As of 7:35 PM on Friday 24 Oct 2014 (Local Time) from KSLR Reporting Station
Clear Clear  
Wind Chill: 72°   Ceiling: Unl
Heat Index: 72°   Visibility: 10mi
Dew Point: 59°   Wind: 6mph
Humidity: 64%   Direction: 160°SSE
Pressure: 30.11"   Gusts: NA
Location:  33.12°N, 95.73°W
Report Text: KSLR 250035Z AUTO 16005KT 10SM CLR 22/15 A3011 RMK AO2 T02210151
Loading
Personal Weather Stations






























Interactive Weather Map New forecast layout! Learn more

10-Day Weather Forecast

Advertisements
Track Severe Weather on mobile